Time;durP1;ratioP1;P1;durP2;ratioP2;P2;SDS_P1;SDS_P2;PMS_P1;PMS_P2;Temp;Humidity;BMP_temperature;BMP_pressure;BME280_temperature;BME280_humidity;BME280_pressure;Samples;Min_cycle;Max_cycle;Signal;HPM_P1;HPM_P2
2022/07/09 00:00:38;;;;;;;6.63;2.83;;;16.10;94.60;;;;;;5108621;28;20437;-71
2022/07/09 00:03:24;;;;;;;4.30;2.73;;;16.00;94.90;;;;;;5108628;27;21282;-71
2022/07/09 00:06:09;;;;;;;5.73;2.80;;;16.00;95.20;;;;;;5114300;27;20472;-71
2022/07/09 00:08:57;;;;;;;7.07;3.07;;;15.90;95.40;;;;;;5101159;28;20441;-71
2022/07/09 00:11:42;;;;;;;4.77;2.80;;;15.80;95.70;;;;;;5106565;27;21084;-71
2022/07/09 00:14:29;;;;;;;4.13;2.97;;;15.70;96.50;;;;;;5107337;28;20594;-71
2022/07/09 00:17:14;;;;;;;3.27;2.50;;;15.60;97.40;;;;;;5106921;28;20841;-71
2022/07/09 00:20:02;;;;;;;4.97;2.80;;;15.70;98.50;;;;;;5100941;28;20469;-71
2022/07/09 00:22:47;;;;;;;4.37;2.90;;;15.50;98.90;;;;;;5109033;28;20976;-71
2022/07/09 00:25:34;;;;;;;13.20;3.00;;;15.50;99.70;;;;;;5108431;28;20819;-71
2022/07/09 00:28:20;;;;;;;5.07;2.87;;;15.50;99.90;;;;;;5106575;28;20469;-71
2022/07/09 00:31:06;;;;;;;4.73;2.70;;;15.50;99.90;;;;;;5108061;28;20580;-71
2022/07/09 00:33:51;;;;;;;4.73;2.73;;;15.40;99.90;;;;;;5104763;27;20834;-71
2022/07/09 00:36:37;;;;;;;7.30;3.10;;;15.30;99.90;;;;;;5106406;28;20514;-71
2022/07/09 00:39:23;;;;;;;3.70;3.00;;;15.40;99.90;;;;;;5102150;27;21475;-71
2022/07/09 00:42:11;;;;;;;5.30;2.53;;;15.50;99.90;;;;;;5101307;28;20416;-71
2022/07/09 00:44:57;;;;;;;6.90;3.17;;;15.40;99.90;;;;;;5111941;28;20604;-71
2022/07/09 00:47:42;;;;;;;7.40;3.00;;;15.50;99.90;;;;;;5107342;28;20435;-71
2022/07/09 00:50:28;;;;;;;4.23;2.67;;;15.40;99.90;;;;;;5106326;28;20960;-71
2022/07/09 00:53:16;;;;;;;5.13;2.50;;;15.30;99.90;;;;;;5109282;28;20957;-72
2022/07/09 00:56:02;;;;;;;6.27;2.70;;;15.30;99.90;;;;;;5104992;28;20480;-71
2022/07/09 00:58:51;;;;;;;4.67;2.67;;;15.30;99.90;;;;;;5097795;28;20461;-71
2022/07/09 01:01:37;;;;;;;7.70;3.67;;;15.30;99.90;;;;;;5108405;27;20415;-70
2022/07/09 01:04:22;;;;;;;6.60;3.53;;;15.30;99.90;;;;;;5107099;28;20541;-71
2022/07/09 01:07:08;;;;;;;6.03;2.90;;;15.20;99.90;;;;;;5123788;22;20508;-72
2022/07/09 01:09:54;;;;;;;9.20;3.13;;;15.20;99.90;;;;;;5106255;27;20459;-72
2022/07/09 01:12:39;;;;;;;5.37;3.10;;;15.40;99.90;;;;;;5108388;28;20427;-72
2022/07/09 01:15:26;;;;;;;6.90;3.30;;;15.50;99.90;;;;;;5104598;28;20432;-72
2022/07/09 01:18:12;;;;;;;4.03;3.17;;;15.60;99.90;;;;;;5103220;28;20480;-72
2022/07/09 01:20:59;;;;;;;4.70;3.00;;;15.60;99.90;;;;;;5109139;28;20800;-72
2022/07/09 01:23:45;;;;;;;5.57;3.07;;;15.50;99.90;;;;;;5104339;28;20878;-72
2022/07/09 01:26:31;;;;;;;4.87;2.87;;;15.30;99.90;;;;;;5108599;28;20557;-73
2022/07/09 01:29:17;;;;;;;6.00;3.07;;;15.20;99.90;;;;;;5099980;28;20551;-72
2022/07/09 01:32:03;;;;;;;7.50;3.10;;;14.90;99.90;;;;;;5111219;28;20467;-72
2022/07/09 01:34:49;;;;;;;4.13;2.80;;;14.80;99.90;;;;;;5106058;28;20721;-72
2022/07/09 01:37:36;;;;;;;7.53;3.37;;;14.80;99.90;;;;;;5107309;27;20461;-72
2022/07/09 01:40:22;;;;;;;6.03;2.97;;;14.90;99.90;;;;;;5112247;28;20871;-72
2022/07/09 01:43:08;;;;;;;12.50;2.67;;;14.90;99.90;;;;;;5110778;28;20445;-72
2022/07/09 01:45:54;;;;;;;4.37;3.00;;;15.00;99.90;;;;;;5107932;27;20440;-72
2022/07/09 01:48:42;;;;;;;4.20;2.93;;;15.10;99.90;;;;;;5110029;28;20432;-72
2022/07/09 01:51:27;;;;;;;5.90;2.87;;;15.30;99.90;;;;;;5112861;27;20454;-72
2022/07/09 01:54:14;;;;;;;3.80;2.73;;;15.20;99.90;;;;;;5111356;27;20537;-72
2022/07/09 01:57:00;;;;;;;9.13;2.70;;;15.20;99.90;;;;;;5108452;27;20456;-72
2022/07/09 01:59:45;;;;;;;4.17;2.70;;;15.20;99.90;;;;;;5108440;27;20458;-72
2022/07/09 02:02:31;;;;;;;2.90;2.20;;;15.20;99.90;;;;;;5113490;28;20575;-72
2022/07/09 02:05:17;;;;;;;4.07;2.70;;;15.30;99.90;;;;;;5111834;28;20961;-72
2022/07/09 02:08:02;;;;;;;3.73;2.87;;;15.20;99.90;;;;;;5104989;27;20479;-72
2022/07/09 02:10:49;;;;;;;3.87;3.00;;;15.10;99.90;;;;;;5112035;27;21370;-72
2022/07/09 02:13:35;;;;;;;3.27;2.70;;;15.10;99.90;;;;;;5112718;28;20429;-72
2022/07/09 02:16:21;;;;;;;4.90;2.27;;;15.00;99.90;;;;;;5109451;28;20460;-72
2022/07/09 02:19:07;;;;;;;4.23;2.93;;;15.00;99.90;;;;;;5109934;28;20558;-72
2022/07/09 02:21:52;;;;;;;3.03;2.50;;;14.90;99.90;;;;;;5107640;28;20456;-72
2022/07/09 02:24:38;;;;;;;3.63;2.70;;;14.90;99.90;;;;;;5110425;28;21007;-73
2022/07/09 02:27:25;;;;;;;4.63;2.90;;;14.90;99.90;;;;;;5106228;27;20580;-72
2022/07/09 02:30:11;;;;;;;3.57;2.77;;;14.90;99.90;;;;;;5109172;27;20432;-72
2022/07/09 02:32:57;;;;;;;9.20;3.30;;;14.80;99.90;;;;;;5109886;28;20448;-72
2022/07/09 02:35:43;;;;;;;4.83;2.57;;;14.70;99.90;;;;;;5111947;28;20475;-72
2022/07/09 02:38:29;;;;;;;4.50;3.17;;;14.70;99.90;;;;;;5107931;28;20440;-72
2022/07/09 02:41:15;;;;;;;3.60;2.90;;;14.50;99.90;;;;;;5112127;28;20460;-72
2022/07/09 02:44:02;;;;;;;5.23;2.90;;;14.60;99.90;;;;;;5111097;28;20440;-72
2022/07/09 02:46:48;;;;;;;4.33;3.40;;;14.60;99.90;;;;;;5109501;27;20564;-72
2022/07/09 02:49:33;;;;;;;4.97;3.10;;;14.50;99.90;;;;;;5112238;28;20437;-72
2022/07/09 02:52:19;;;;;;;5.70;4.07;;;14.50;99.90;;;;;;5109931;28;20423;-72
2022/07/09 02:55:05;;;;;;;5.90;2.77;;;14.50;99.90;;;;;;5109924;28;20535;-72
2022/07/09 02:57:50;;;;;;;10.10;3.10;;;14.50;99.90;;;;;;5105779;27;20813;-72
2022/07/09 03:00:39;;;;;;;5.30;2.60;;;14.50;99.90;;;;;;5112907;27;20542;-72
2022/07/09 03:03:26;;;;;;;5.03;3.33;;;14.50;99.90;;;;;;5109962;28;20423;-72
2022/07/09 03:06:12;;;;;;;3.60;2.80;;;14.60;99.90;;;;;;5106601;27;20453;-72
2022/07/09 03:08:58;;;;;;;3.70;2.63;;;14.60;99.90;;;;;;5107419;28;20452;-72
2022/07/09 03:11:43;;;;;;;4.80;2.80;;;14.60;99.90;;;;;;5112241;28;20490;-73
2022/07/09 03:14:28;;;;;;;5.07;3.07;;;14.70;99.90;;;;;;5110117;27;20432;-72
2022/07/09 03:17:16;;;;;;;5.27;3.27;;;14.60;99.90;;;;;;5106057;28;20457;-72
2022/07/09 03:20:02;;;;;;;4.77;2.70;;;14.40;99.90;;;;;;5107584;28;20578;-72
2022/07/09 03:22:47;;;;;;;4.97;2.87;;;14.50;99.90;;;;;;5109880;28;20505;-72
2022/07/09 03:25:33;;;;;;;4.30;2.60;;;14.60;99.90;;;;;;5106720;27;20630;-72
2022/07/09 03:28:19;;;;;;;7.10;3.30;;;14.60;99.90;;;;;;5108115;27;20464;-72
2022/07/09 03:31:05;;;;;;;4.83;2.93;;;14.70;99.90;;;;;;5111857;28;20444;-72
2022/07/09 03:33:53;;;;;;;3.67;2.80;;;14.80;99.90;;;;;;5110781;28;20917;-72
2022/07/09 03:36:38;;;;;;;4.23;2.53;;;14.80;99.90;;;;;;5102820;27;20833;-72
2022/07/09 03:39:24;;;;;;;5.47;2.90;;;14.80;99.90;;;;;;5110428;27;20464;-72
2022/07/09 03:42:09;;;;;;;5.10;2.87;;;14.80;99.90;;;;;;5107969;28;20440;-72
2022/07/09 03:44:55;;;;;;;2.90;2.30;;;14.80;99.90;;;;;;5105138;28;20444;-72
2022/07/09 03:47:41;;;;;;;4.30;3.13;;;14.80;99.90;;;;;;5103717;27;20541;-72
2022/07/09 03:50:28;;;;;;;7.33;2.90;;;14.80;99.90;;;;;;5108990;28;20444;-72
2022/07/09 03:53:14;;;;;;;7.30;3.07;;;14.80;99.90;;;;;;5109398;28;21043;-72
2022/07/09 03:55:59;;;;;;;3.80;3.10;;;14.80;99.90;;;;;;5103718;28;20444;-72
2022/07/09 03:58:45;;;;;;;4.10;2.90;;;14.70;99.90;;;;;;5108217;27;20784;-72
2022/07/09 04:01:31;;;;;;;5.90;3.20;;;14.60;99.90;;;;;;5109621;28;20441;-72
2022/07/09 04:04:16;;;;;;;4.43;3.00;;;14.50;99.90;;;;;;5110299;28;20853;-72
2022/07/09 04:07:03;;;;;;;7.93;3.30;;;14.50;99.90;;;;;;5107190;28;21123;-72
2022/07/09 04:09:49;;;;;;;3.10;2.80;;;14.50;99.90;;;;;;5110795;28;20523;-72
2022/07/09 04:12:34;;;;;;;5.50;2.90;;;14.40;99.90;;;;;;5108567;27;20440;-72
2022/07/09 04:15:20;;;;;;;4.40;2.83;;;14.40;99.90;;;;;;5106956;27;21110;-72
2022/07/09 04:18:05;;;;;;;3.60;3.30;;;14.40;99.90;;;;;;5107042;27;20537;-72
2022/07/09 04:20:52;;;;;;;3.40;3.10;;;14.50;99.90;;;;;;5109635;28;20467;-72
2022/07/09 04:23:39;;;;;;;3.53;3.10;;;14.60;99.90;;;;;;5110309;27;20523;-72
2022/07/09 04:26:25;;;;;;;6.83;3.10;;;14.80;99.90;;;;;;5100043;28;20452;-73
2022/07/09 04:29:11;;;;;;;2.93;2.47;;;14.80;99.90;;;;;;5107471;28;20443;-73
2022/07/09 04:31:57;;;;;;;5.20;3.53;;;14.80;99.90;;;;;;5107329;28;20453;-72
2022/07/09 04:34:42;;;;;;;4.20;3.30;;;14.70;99.90;;;;;;5105313;27;20580;-72
2022/07/09 04:37:28;;;;;;;12.80;3.63;;;14.70;99.90;;;;;;5107321;28;20458;-72
2022/07/09 04:40:15;;;;;;;4.20;2.80;;;14.80;99.90;;;;;;5107074;28;20536;-72
2022/07/09 04:43:01;;;;;;;6.00;3.40;;;14.90;99.90;;;;;;5100360;28;20446;-72
2022/07/09 04:45:47;;;;;;;7.20;3.67;;;14.80;99.90;;;;;;5098226;28;20449;-72
2022/07/09 04:48:32;;;;;;;6.83;3.17;;;14.90;99.90;;;;;;5109631;28;20478;-72
2022/07/09 04:51:18;;;;;;;6.87;3.53;;;14.90;99.90;;;;;;5109326;28;20452;-73
2022/07/09 04:54:03;;;;;;;6.13;3.40;;;14.90;99.90;;;;;;5103019;28;20437;-72
2022/07/09 04:56:50;;;;;;;4.73;3.00;;;14.90;99.90;;;;;;5110424;27;20455;-72
2022/07/09 04:59:36;;;;;;;5.50;3.67;;;15.00;99.90;;;;;;5108611;28;21032;-72
2022/07/09 05:02:22;;;;;;;5.10;2.83;;;15.00;99.90;;;;;;5107397;28;20456;-73
2022/07/09 05:05:08;;;;;;;6.37;3.40;;;15.10;99.90;;;;;;5102509;28;20444;-72
2022/07/09 05:07:54;;;;;;;12.90;5.10;;;15.20;99.90;;;;;;5109012;28;20480;-72
2022/07/09 05:10:40;;;;;;;5.43;3.40;;;15.30;99.90;;;;;;5106095;28;20523;-73
2022/07/09 05:13:27;;;;;;;4.67;3.30;;;15.40;99.90;;;;;;5106655;28;20480;-72
2022/07/09 05:16:13;;;;;;;5.50;3.90;;;15.40;99.90;;;;;;5106048;28;20433;-73
2022/07/09 05:18:58;;;;;;;5.97;3.77;;;15.40;99.90;;;;;;5106313;28;20440;-72
2022/07/09 05:21:44;;;;;;;9.10;3.60;;;15.50;99.90;;;;;;5109688;28;20506;-72
2022/07/09 05:24:30;;;;;;;5.97;3.50;;;15.50;99.90;;;;;;5104511;28;20441;-72
2022/07/09 05:27:16;;;;;;;4.80;3.40;;;15.60;99.90;;;;;;5107723;28;20480;-72
2022/07/09 05:30:03;;;;;;;4.60;3.50;;;15.60;99.90;;;;;;5106077;28;20487;-72
2022/07/09 05:32:48;;;;;;;8.80;3.23;;;15.70;99.90;;;;;;5108751;28;20882;-72
2022/07/09 05:35:34;;;;;;;5.93;3.90;;;15.90;99.90;;;;;;5100582;28;20437;-72
2022/07/09 05:38:21;;;;;;;4.67;3.33;;;16.00;99.90;;;;;;5106010;28;20550;-72
2022/07/09 05:41:07;;;;;;;8.33;3.80;;;16.10;99.90;;;;;;5109575;28;21000;-72
2022/07/09 05:43:53;;;;;;;4.30;3.00;;;16.20;99.90;;;;;;5104914;28;20437;-72
2022/07/09 05:46:40;;;;;;;6.30;3.30;;;16.30;99.90;;;;;;5108292;28;20465;-72
2022/07/09 05:49:26;;;;;;;4.20;3.80;;;16.40;99.90;;;;;;5105745;28;20459;-72
2022/07/09 05:52:12;;;;;;;3.57;2.93;;;16.50;99.90;;;;;;5109398;28;20440;-72
2022/07/09 05:54:58;;;;;;;5.47;4.10;;;16.60;99.90;;;;;;5101777;28;20571;-72
2022/07/09 05:57:43;;;;;;;7.20;3.80;;;16.70;99.90;;;;;;5107599;28;20451;-72
2022/07/09 06:00:29;;;;;;;6.63;3.27;;;16.80;99.90;;;;;;5106043;28;20477;-72
2022/07/09 06:03:16;;;;;;;7.00;2.43;;;17.00;99.90;;;;;;5103742;28;20977;-72
2022/07/09 06:06:01;;;;;;;4.70;3.07;;;17.20;99.90;;;;;;5105237;28;20437;-72
2022/07/09 06:08:47;;;;;;;4.77;2.50;;;17.30;99.90;;;;;;5109212;28;20841;-72
2022/07/09 06:11:33;;;;;;;4.23;2.57;;;17.40;99.90;;;;;;5106684;28;20440;-72
2022/07/09 06:14:19;;;;;;;7.73;2.83;;;17.50;99.90;;;;;;5104533;28;20452;-72
2022/07/09 06:17:06;;;;;;;8.90;2.80;;;17.60;99.90;;;;;;5106208;28;20467;-72
2022/07/09 06:19:53;;;;;;;4.33;2.20;;;17.80;99.90;;;;;;5109218;28;20549;-73
2022/07/09 06:22:39;;;;;;;4.47;2.37;;;17.90;99.90;;;;;;5106397;27;20537;-73
2022/07/09 06:25:25;;;;;;;4.07;2.50;;;18.00;99.90;;;;;;5108629;28;20526;-72
2022/07/09 06:28:11;;;;;;;3.20;2.37;;;18.10;99.90;;;;;;5110928;28;20554;-72
2022/07/09 06:30:57;;;;;;;3.87;2.43;;;18.20;99.90;;;;;;5112809;28;20633;-72
2022/07/09 06:33:42;;;;;;;3.50;1.90;;;18.30;99.90;;;;;;5106398;27;20447;-72
2022/07/09 06:36:29;;;;;;;4.00;2.13;;;18.40;99.90;;;;;;5104957;27;20571;-72
2022/07/09 06:42:19;;;;;;;3.70;2.10;;;18.80;99.90;;;;;;5109191;28;20448;-72
2022/07/09 06:45:06;;;;;;;3.30;2.30;;;18.90;99.90;;;;;;5108531;27;20805;-72
2022/07/09 06:47:52;;;;;;;4.13;2.20;;;18.90;99.90;;;;;;5111641;27;20537;-73
2022/07/09 06:50:38;;;;;;;4.53;2.03;;;19.00;99.90;;;;;;5110070;28;20452;-73
2022/07/09 06:53:25;;;;;;;4.83;2.07;;;19.00;99.90;;;;;;5106906;27;20441;-72
2022/07/09 06:56:11;;;;;;;10.40;2.37;;;19.20;99.90;;;;;;5109252;28;20449;-72
2022/07/09 06:58:57;;;;;;;4.60;2.27;;;19.30;99.90;;;;;;5111282;27;20953;-72
2022/07/09 07:01:42;;;;;;;7.00;2.00;;;19.40;99.90;;;;;;5104987;27;20476;-72
2022/07/09 07:04:28;;;;;;;4.93;1.90;;;19.50;99.90;;;;;;5104877;27;20452;-72
2022/07/09 07:07:14;;;;;;;7.17;2.87;;;19.60;99.90;;;;;;5113201;22;20597;-72
2022/07/09 07:10:01;;;;;;;4.33;1.80;;;19.70;99.90;;;;;;5072136;28;20435;-72
2022/07/09 07:12:47;;;;;;;3.97;2.33;;;19.80;99.90;;;;;;5064720;28;20451;-72
2022/07/09 07:15:32;;;;;;;4.03;2.30;;;19.90;99.90;;;;;;5068544;28;20531;-72
2022/07/09 07:18:18;;;;;;;4.33;2.03;;;20.00;99.90;;;;;;5085878;28;20988;-72
2022/07/09 07:21:04;;;;;;;2.57;2.10;;;20.20;99.90;;;;;;5088213;28;20469;-72
2022/07/09 07:23:50;;;;;;;6.20;2.40;;;20.30;99.90;;;;;;5086468;28;20453;-72
2022/07/09 07:26:37;;;;;;;5.17;2.13;;;20.40;99.90;;;;;;5082684;28;20990;-72
2022/07/09 07:29:22;;;;;;;6.20;2.40;;;20.40;94.40;;;;;;5085262;28;20600;-72
2022/07/09 07:32:09;;;;;;;3.83;1.97;;;20.40;93.20;;;;;;5089054;28;20791;-72
2022/07/09 07:34:55;;;;;;;4.90;3.63;;;20.50;92.50;;;;;;5085566;28;20424;-72
2022/07/09 07:37:41;;;;;;;15.13;2.90;;;20.50;89.10;;;;;;5088725;28;20464;-72
2022/07/09 07:40:27;;;;;;;8.40;2.67;;;20.50;87.30;;;;;;5085741;28;20466;-73
2022/07/09 07:43:13;;;;;;;5.73;2.30;;;20.60;89.40;;;;;;5080523;28;20531;-72
2022/07/09 07:45:59;;;;;;;5.50;2.90;;;20.60;87.40;;;;;;5088051;28;20446;-73
2022/07/09 07:48:45;;;;;;;5.43;3.27;;;20.70;88.20;;;;;;5087417;28;20895;-72
2022/07/09 07:51:30;;;;;;;6.80;3.13;;;20.80;85.90;;;;;;5085014;28;20772;-72
2022/07/09 07:54:17;;;;;;;8.70;3.10;;;20.70;84.50;;;;;;5082325;28;20462;-73
2022/07/09 07:57:02;;;;;;;5.80;2.70;;;20.70;85.00;;;;;;5088886;28;21152;-72
2022/07/09 07:59:50;;;;;;;11.33;3.00;;;20.60;87.00;;;;;;5086348;28;20461;-72
2022/07/09 08:02:35;;;;;;;21.33;3.80;;;20.60;87.60;;;;;;5081291;28;20434;-72
2022/07/09 08:05:21;;;;;;;9.07;3.43;;;20.60;86.50;;;;;;5086937;28;20438;-72
2022/07/09 08:08:07;;;;;;;7.47;3.63;;;20.70;85.30;;;;;;5083716;28;20559;-72
2022/07/09 08:10:53;;;;;;;5.30;2.93;;;20.70;85.90;;;;;;5092596;28;20441;-72
2022/07/09 08:13:39;;;;;;;10.50;3.60;;;20.80;85.70;;;;;;5078543;28;20442;-72
2022/07/09 08:16:26;;;;;;;6.40;2.90;;;20.90;86.30;;;;;;5089694;28;20467;-72
2022/07/09 08:19:14;;;;;;;4.93;3.00;;;21.10;85.20;;;;;;5083615;28;20479;-72
2022/07/09 08:21:59;;;;;;;8.07;3.30;;;21.20;84.90;;;;;;5083385;28;21015;-73
2022/07/09 08:24:45;;;;;;;11.40;3.40;;;21.30;84.00;;;;;;5087560;28;20440;-72
2022/07/09 08:27:31;;;;;;;10.40;3.80;;;21.40;84.40;;;;;;5082014;28;20466;-72
2022/07/09 08:30:16;;;;;;;6.13;3.20;;;21.50;81.70;;;;;;5079989;28;20900;-72
2022/07/09 08:33:03;;;;;;;8.07;3.23;;;21.60;79.90;;;;;;5083559;28;20547;-72
2022/07/09 08:35:49;;;;;;;11.50;3.90;;;21.60;80.30;;;;;;5084198;28;21000;-72
2022/07/09 08:38:35;;;;;;;12.30;4.17;;;21.60;77.40;;;;;;5081765;28;20466;-72
2022/07/09 08:41:24;;;;;;;8.70;4.47;;;21.70;78.70;;;;;;5089452;28;20465;-72
2022/07/09 08:44:12;;;;;;;7.70;3.73;;;21.80;77.10;;;;;;5085392;28;20421;-72
2022/07/09 08:46:58;;;;;;;10.27;4.30;;;21.70;75.60;;;;;;5090169;28;20528;-72
2022/07/09 08:49:48;;;;;;;11.23;3.47;;;21.60;74.10;;;;;;5082252;28;20454;-73
2022/07/09 08:52:34;;;;;;;5.20;4.47;;;21.60;76.20;;;;;;5081814;28;20439;-72
2022/07/09 08:55:20;;;;;;;5.67;3.97;;;21.60;75.90;;;;;;5088058;28;20447;-71
2022/07/09 08:58:05;;;;;;;16.97;4.53;;;21.80;76.30;;;;;;5084512;28;20461;-72
2022/07/09 09:00:51;;;;;;;8.23;4.03;;;21.90;76.10;;;;;;5080495;28;20474;-72
2022/07/09 09:03:37;;;;;;;13.97;5.63;;;22.00;74.20;;;;;;5083550;28;20809;-72
2022/07/09 09:06:24;;;;;;;6.90;3.40;;;22.00;71.50;;;;;;5080115;28;20434;-72
2022/07/09 09:09:11;;;;;;;5.93;3.77;;;22.20;74.50;;;;;;5083569;28;20961;-72
2022/07/09 09:11:58;;;;;;;5.57;3.30;;;22.20;70.40;;;;;;5085448;28;20457;-72
2022/07/09 09:14:49;;;;;;;11.93;3.53;;;22.10;69.60;;;;;;5080890;28;20442;-72
2022/07/09 09:17:43;;;;;;;9.47;4.20;;;22.20;67.60;;;;;;5085179;28;20816;-72
2022/07/09 09:20:29;;;;;;;8.07;3.60;;;22.20;65.90;;;;;;5079986;28;20504;-72
2022/07/09 09:23:18;;;;;;;7.33;3.80;;;22.20;67.30;;;;;;5082383;28;20442;-72
2022/07/09 09:26:10;;;;;;;8.33;4.50;;;22.20;67.10;;;;;;5082708;28;20531;-72
2022/07/09 09:28:56;;;;;;;11.43;4.70;;;22.40;66.90;;;;;;5081355;28;20450;-72
2022/07/09 09:31:45;;;;;;;6.20;3.90;;;22.40;65.50;;;;;;5079937;28;20521;-73
2022/07/09 09:34:36;;;;;;;8.77;4.00;;;22.40;65.50;;;;;;5082121;28;20460;-72
2022/07/09 09:37:29;;;;;;;7.03;3.90;;;22.20;66.70;;;;;;5079351;28;20458;-72
2022/07/09 09:40:17;;;;;;;5.00;3.33;;;22.20;66.50;;;;;;5081588;28;20444;-72
2022/07/09 09:43:04;;;;;;;6.93;3.70;;;22.20;67.30;;;;;;5079081;28;20438;-72
2022/07/09 09:45:52;;;;;;;5.87;3.33;;;22.20;66.70;;;;;;5080223;28;20580;-72
2022/07/09 09:48:38;;;;;;;8.03;3.40;;;22.20;68.10;;;;;;5092399;28;20529;-72
2022/07/09 09:51:24;;;;;;;4.10;3.10;;;22.20;69.20;;;;;;5083802;28;20859;-72
2022/07/09 09:54:11;;;;;;;9.47;3.50;;;22.20;68.80;;;;;;5090582;28;20523;-72
2022/07/09 09:56:59;;;;;;;8.20;3.70;;;22.30;68.30;;;;;;5089262;28;20983;-72
2022/07/09 09:59:46;;;;;;;7.27;3.40;;;22.30;66.40;;;;;;5085632;28;20499;-72
2022/07/09 10:02:35;;;;;;;7.07;2.93;;;22.30;67.60;;;;;;5087179;28;20795;-72
2022/07/09 10:05:20;;;;;;;10.50;3.50;;;22.20;68.80;;;;;;5094439;28;20434;-72
2022/07/09 10:08:06;;;;;;;8.03;3.50;;;22.10;66.90;;;;;;5094585;28;20448;-72
2022/07/09 10:10:52;;;;;;;4.90;3.10;;;22.00;68.10;;;;;;5088681;28;20954;-72
2022/07/09 10:13:51;;;;;;;6.77;2.80;;;22.00;69.60;;;;;;5074452;28;20488;-72
2022/07/09 10:16:37;;;;;;;4.80;2.53;;;22.20;68.90;;;;;;5074132;28;20415;-73
2022/07/09 10:19:25;;;;;;;5.00;2.90;;;22.40;72.40;;;;;;5079520;28;20587;-72
2022/07/09 10:22:10;;;;;;;10.40;3.07;;;22.70;69.40;;;;;;5084214;28;20822;-72
2022/07/09 10:24:56;;;;;;;12.50;2.57;;;23.10;69.50;;;;;;5092096;28;20519;-73
2022/07/09 10:27:43;;;;;;;4.67;2.40;;;23.30;64.30;;;;;;5089725;28;20892;-72
2022/07/09 10:30:31;;;;;;;4.93;2.93;;;23.30;57.60;;;;;;5085254;28;20445;-72
2022/07/09 10:33:23;;;;;;;8.70;3.20;;;23.20;59.50;;;;;;5093121;28;20915;-72
2022/07/09 10:36:14;;;;;;;6.37;2.87;;;23.20;60.00;;;;;;5094014;28;20443;-71
2022/07/09 10:38:59;;;;;;;7.77;3.00;;;23.10;59.10;;;;;;5089533;28;20452;-69
2022/07/09 10:41:45;;;;;;;8.83;2.70;;;23.20;56.70;;;;;;5082585;28;20869;-68
2022/07/09 10:44:36;;;;;;;11.23;2.60;;;23.40;63.00;;;;;;5082136;28;20450;-68
2022/07/09 10:47:23;;;;;;;7.73;2.50;;;23.50;57.00;;;;;;5089407;28;20492;-68
2022/07/09 10:50:09;;;;;;;13.93;3.00;;;23.70;57.30;;;;;;5088455;28;20631;-68
2022/07/09 10:52:56;;;;;;;13.27;3.10;;;23.90;57.50;;;;;;5086199;28;20945;-68
2022/07/09 10:55:44;;;;;;;7.53;3.10;;;23.90;52.90;;;;;;5084827;28;20512;-69
2022/07/09 10:58:30;;;;;;;4.87;2.60;;;24.10;54.50;;;;;;5084490;28;20583;-68
2022/07/09 11:01:21;;;;;;;5.00;3.00;;;24.30;56.30;;;;;;5081656;28;20873;-68
2022/07/09 11:04:08;;;;;;;5.70;2.30;;;24.20;48.90;;;;;;5079140;28;20961;-68
2022/07/09 11:06:54;;;;;;;4.97;2.63;;;23.90;48.50;;;;;;5086396;28;20473;-68
2022/07/09 11:09:40;;;;;;;4.30;2.30;;;23.70;51.00;;;;;;5080394;28;20445;-69
2022/07/09 11:12:26;;;;;;;7.47;2.80;;;23.60;52.90;;;;;;5089795;28;20446;-69
2022/07/09 11:15:18;;;;;;;5.43;2.60;;;23.70;53.40;;;;;;5088072;28;20850;-68
2022/07/09 11:18:05;;;;;;;9.70;2.37;;;23.80;51.10;;;;;;5083897;28;20467;-69
2022/07/09 11:20:52;;;;;;;7.90;2.97;;;23.90;52.30;;;;;;5082035;28;20443;-68
2022/07/09 11:23:38;;;;;;;5.50;2.30;;;23.90;50.20;;;;;;5100635;28;20460;-69
2022/07/09 11:26:23;;;;;;;6.53;2.60;;;23.90;52.30;;;;;;5093071;28;20456;-69
2022/07/09 11:29:10;;;;;;;5.47;2.50;;;24.10;53.70;;;;;;5101834;28;20442;-68
2022/07/09 11:31:55;;;;;;;5.07;2.77;;;24.30;50.70;;;;;;5095058;28;20970;-68
2022/07/09 11:34:50;;;;;;;6.87;2.63;;;24.40;48.80;;;;;;5098339;28;20813;-68
2022/07/09 11:37:38;;;;;;;6.97;2.87;;;24.50;47.70;;;;;;5097572;28;20882;-68
2022/07/09 11:40:24;;;;;;;4.10;2.30;;;24.30;49.50;;;;;;5091679;28;20472;-68
2022/07/09 11:43:16;;;;;;;4.47;2.23;;;24.20;48.90;;;;;;5101466;28;20469;-68
2022/07/09 11:46:02;;;;;;;4.60;2.87;;;24.20;50.20;;;;;;5101890;28;20444;-68
2022/07/09 11:48:51;;;;;;;4.47;2.20;;;24.40;47.20;;;;;;5100358;28;20551;-68
2022/07/09 11:51:39;;;;;;;5.47;2.80;;;24.60;46.10;;;;;;5092953;28;20437;-68
2022/07/09 11:54:29;;;;;;;5.20;2.40;;;24.70;45.00;;;;;;5098038;28;20588;-68
2022/07/09 11:57:20;;;;;;;8.20;2.33;;;24.80;44.70;;;;;;5098739;28;20466;-68
2022/07/09 12:00:08;;;;;;;6.07;2.00;;;24.90;45.80;;;;;;5092746;28;20528;-68
2022/07/09 12:02:55;;;;;;;6.40;2.00;;;25.00;45.70;;;;;;5103603;28;20828;-69
2022/07/09 12:05:41;;;;;;;7.47;3.03;;;25.30;46.10;;;;;;5096471;28;20943;-68
2022/07/09 12:08:30;;;;;;;7.00;2.50;;;25.30;42.10;;;;;;5098303;28;20560;-68
2022/07/09 12:11:27;;;;;;;3.80;2.37;;;25.20;41.10;;;;;;5086932;28;20555;-69
2022/07/09 12:14:13;;;;;;;23.13;2.63;;;25.20;40.20;;;;;;5091298;28;20450;-68
2022/07/09 12:16:58;;;;;;;6.07;2.20;;;25.00;38.70;;;;;;5094774;28;20597;-69
2022/07/09 12:19:44;;;;;;;3.30;1.80;;;25.00;38.10;;;;;;5083941;28;21093;-68
2022/07/09 12:22:30;;;;;;;3.40;1.70;;;24.90;39.30;;;;;;5088489;28;20879;-68
2022/07/09 12:25:16;;;;;;;6.07;2.10;;;25.10;40.70;;;;;;5091827;28;20961;-68
2022/07/09 12:28:02;;;;;;;2.63;1.80;;;25.40;40.40;;;;;;5080253;28;20626;-68
2022/07/09 12:30:49;;;;;;;3.77;2.33;;;25.50;40.50;;;;;;5086330;28;20460;-68
2022/07/09 12:33:35;;;;;;;3.47;1.50;;;25.60;39.10;;;;;;5086029;28;20438;-68
2022/07/09 12:36:21;;;;;;;3.50;1.80;;;25.60;37.90;;;;;;5084013;28;20438;-68
2022/07/09 12:39:07;;;;;;;2.50;1.63;;;25.70;39.40;;;;;;5086865;28;20442;-69
2022/07/09 12:41:53;;;;;;;4.00;2.30;;;25.90;37.30;;;;;;5090005;28;20477;-68
2022/07/09 12:44:40;;;;;;;4.07;1.63;;;25.90;37.90;;;;;;5089660;28;20801;-68
2022/07/09 12:47:26;;;;;;;4.13;1.40;;;25.90;37.20;;;;;;5087726;28;20557;-68
2022/07/09 12:50:11;;;;;;;4.50;1.70;;;25.90;37.60;;;;;;5082710;28;20451;-68
2022/07/09 12:52:57;;;;;;;2.57;1.27;;;25.70;37.10;;;;;;5087904;28;20523;-68
2022/07/09 12:55:43;;;;;;;4.40;1.90;;;25.70;36.90;;;;;;5086369;28;20567;-68
2022/07/09 12:58:30;;;;;;;4.27;2.17;;;25.70;37.10;;;;;;5088635;28;21020;-69
2022/07/09 13:01:17;;;;;;;3.00;1.60;;;25.60;36.40;;;;;;5079726;28;20532;-68
2022/07/09 13:04:03;;;;;;;3.90;1.30;;;25.60;35.80;;;;;;5094711;28;20432;-68
2022/07/09 13:06:49;;;;;;;3.00;1.50;;;25.60;37.30;;;;;;5093229;28;20460;-68
2022/07/09 13:09:34;;;;;;;3.07;1.40;;;25.60;35.40;;;;;;5115623;22;20844;-71
2022/07/09 13:12:20;;;;;;;4.63;1.20;;;25.60;35.70;;;;;;5105356;28;20960;-71
2022/07/09 13:15:07;;;;;;;3.00;1.30;;;25.60;35.40;;;;;;5109204;28;20436;-71
2022/07/09 13:17:54;;;;;;;2.33;1.33;;;25.60;34.10;;;;;;5105376;28;21065;-72
2022/07/09 13:20:40;;;;;;;2.13;1.30;;;25.60;34.30;;;;;;5101223;28;20432;-74
2022/07/09 13:23:25;;;;;;;2.23;1.07;;;25.60;34.70;;;;;;5103413;28;20497;-72
2022/07/09 13:26:11;;;;;;;3.40;1.50;;;25.40;33.20;;;;;;5104815;28;20441;-71
2022/07/09 13:28:57;;;;;;;3.23;1.43;;;25.40;34.20;;;;;;5106459;28;20542;-71
2022/07/09 13:31:43;;;;;;;2.60;1.60;;;25.30;33.20;;;;;;5101829;28;20931;-71
2022/07/09 13:34:31;;;;;;;2.10;1.40;;;25.30;33.30;;;;;;5102123;28;21079;-71
2022/07/09 13:37:16;;;;;;;4.73;1.40;;;25.40;33.00;;;;;;5106550;28;20969;-72
2022/07/09 13:40:02;;;;;;;3.00;1.40;;;25.70;34.80;;;;;;5103242;28;20518;-71
2022/07/09 13:42:47;;;;;;;4.47;1.50;;;25.70;31.10;;;;;;5102130;28;20473;-71
2022/07/09 13:45:33;;;;;;;2.57;1.13;;;25.70;32.40;;;;;;5108454;28;20526;-71
2022/07/09 13:48:19;;;;;;;3.27;1.50;;;25.70;31.10;;;;;;5103337;28;20799;-71
2022/07/09 13:51:06;;;;;;;3.17;1.20;;;25.70;31.10;;;;;;5106076;28;20463;-72
2022/07/09 13:53:52;;;;;;;3.27;1.50;;;25.80;32.70;;;;;;5101982;28;20480;-71
2022/07/09 13:56:37;;;;;;;2.37;1.37;;;25.90;33.00;;;;;;5102274;28;20511;-71
2022/07/09 13:59:23;;;;;;;3.67;1.83;;;26.10;31.40;;;;;;5106492;28;20469;-72
2022/07/09 14:02:08;;;;;;;3.70;1.67;;;26.40;32.50;;;;;;5104686;28;20469;-72
2022/07/09 14:04:54;;;;;;;6.63;1.40;;;26.80;30.50;;;;;;5105497;28;20553;-71
2022/07/09 14:07:41;;;;;;;3.17;1.23;;;27.00;30.40;;;;;;5107101;28;20439;-71
2022/07/09 14:10:27;;;;;;;3.00;1.53;;;27.00;30.00;;;;;;5106144;28;20437;-71
2022/07/09 14:13:12;;;;;;;2.30;1.30;;;26.80;29.60;;;;;;5104264;28;20563;-71
2022/07/09 14:16:00;;;;;;;2.50;1.40;;;26.60;30.10;;;;;;5107165;28;20993;-71
2022/07/09 14:18:45;;;;;;;2.70;1.20;;;26.40;29.20;;;;;;5103010;28;20472;-71
2022/07/09 14:21:31;;;;;;;2.30;1.40;;;25.90;30.40;;;;;;5103968;28;20440;-71
2022/07/09 14:24:18;;;;;;;3.60;1.57;;;25.60;31.00;;;;;;5098379;28;20502;-70
2022/07/09 14:27:04;;;;;;;2.57;1.40;;;25.60;31.00;;;;;;5107095;28;20453;-72